Terminal Aerodrome Forecast
Issued by NWS Grand Forks, ND

Home | Current Version | Previous Version | Graphics & Text | Print | Product List | Glossary On
Versions: 1 2 3 4 5 6 7 8 9 10 11 12 13 14 15 16 17 18 19 20 21 22 23 24 25
000
FTUS43 KFGF 171700
TAFFAR
TAF
KFAR 171723Z 1718/1818 VRB03KT P6SM BKN012
      TEMPO 1718/1720 BKN008
     FM172300 12007KT P6SM BKN035
     FM180500 17005KT P6SM -TSRA BKN050CB=

USA.gov is the U.S. government's official web portal to all federal, state and local government web resources and services.